Time;durP1;ratioP1;P1;durP2;ratioP2;P2;SDS_P1;SDS_P2;PMS_P1;PMS_P2;Temp;Humidity;BMP_temperature;BMP_pressure;BME280_temperature;BME280_humidity;BME280_pressure;Samples;Min_cycle;Max_cycle;Signal;HPM_P1;HPM_P2
2023/02/18 00:02:07;;;;;;;3.42;1.80;;;16.40;62.40;;;;;;4993521;28;20031;-73
2023/02/18 00:04:32;;;;;;;5.10;2.90;;;16.40;62.40;;;;;;4993459;28;20050;-73
2023/02/18 00:06:59;;;;;;;3.10;2.28;;;16.30;62.50;;;;;;4993621;28;20375;-73
2023/02/18 00:09:24;;;;;;;3.30;2.22;;;16.40;62.50;;;;;;4993544;28;20037;-73
2023/02/18 00:11:50;;;;;;;2.63;2.15;;;16.40;63.10;;;;;;4993487;28;20022;-73
2023/02/18 00:14:16;;;;;;;2.92;1.95;;;16.40;62.40;;;;;;4993480;28;20046;-73
2023/02/18 00:16:43;;;;;;;4.13;2.63;;;16.30;62.40;;;;;;4993524;28;20386;-73
2023/02/18 00:19:17;;;;;;;2.85;2.08;;;16.30;62.30;;;;;;4975974;28;20030;-72
2023/02/18 00:21:44;;;;;;;3.80;2.30;;;16.40;62.30;;;;;;4993201;28;20038;-73
2023/02/18 00:24:14;;;;;;;3.70;2.40;;;16.40;62.30;;;;;;4993304;28;20046;-73
2023/02/18 00:26:40;;;;;;;3.75;2.28;;;16.40;62.30;;;;;;4993538;28;20022;-73
2023/02/18 00:29:05;;;;;;;3.00;2.40;;;16.40;62.30;;;;;;4993293;28;20061;-73
2023/02/18 00:31:34;;;;;;;3.75;2.30;;;16.40;62.30;;;;;;4993215;28;20109;-73
2023/02/18 00:34:00;;;;;;;4.47;3.13;;;16.40;62.40;;;;;;4993099;28;20429;-73
2023/02/18 00:36:26;;;;;;;3.17;2.50;;;16.40;62.30;;;;;;4993079;28;20476;-73
2023/02/18 00:38:57;;;;;;;3.80;2.80;;;16.40;63.00;;;;;;4993228;28;20030;-73
2023/02/18 00:41:25;;;;;;;4.07;2.53;;;16.40;63.00;;;;;;4992983;28;20091;-73
2023/02/18 00:43:51;;;;;;;4.70;3.47;;;16.40;62.30;;;;;;4993070;28;20473;-73
2023/02/18 00:46:17;;;;;;;4.93;3.00;;;16.30;62.30;;;;;;4993045;28;20101;-73
2023/02/18 00:48:43;;;;;;;5.70;3.47;;;16.40;62.30;;;;;;4992986;28;20026;-73
2023/02/18 00:51:10;;;;;;;6.10;3.75;;;16.40;62.30;;;;;;4992924;28;20104;-73
2023/02/18 00:53:36;;;;;;;5.05;3.40;;;16.40;62.30;;;;;;4992837;28;20027;-73
2023/02/18 00:56:03;;;;;;;6.45;4.10;;;16.30;62.30;;;;;;4992821;28;20037;-73
2023/02/18 00:58:28;;;;;;;4.45;3.40;;;16.40;62.40;;;;;;4992455;28;20031;-73
2023/02/18 01:00:54;;;;;;;6.40;3.60;;;16.40;62.50;;;;;;4992706;28;20074;-73
2023/02/18 01:03:21;;;;;;;5.05;3.30;;;16.40;62.30;;;;;;4992773;28;20066;-73
2023/02/18 01:05:48;;;;;;;4.40;3.40;;;16.40;62.40;;;;;;4992624;28;20463;-73
2023/02/18 01:08:15;;;;;;;4.70;3.40;;;16.30;62.30;;;;;;4992732;28;20035;-73
2023/02/18 01:10:43;;;;;;;5.03;3.30;;;16.40;62.40;;;;;;4992653;28;20029;-73
2023/02/18 01:13:10;;;;;;;5.20;3.10;;;16.30;62.30;;;;;;4992611;28;20122;-73
2023/02/18 01:15:37;;;;;;;6.80;3.72;;;16.40;62.50;;;;;;4992655;28;20101;-72
2023/02/18 01:18:03;;;;;;;4.28;3.15;;;16.40;62.40;;;;;;4992592;28;20034;-73
2023/02/18 01:20:29;;;;;;;6.07;3.17;;;16.40;62.40;;;;;;4992474;28;20022;-73
2023/02/18 01:22:54;;;;;;;5.90;3.65;;;16.40;62.60;;;;;;4992620;28;20038;-73
2023/02/18 01:25:20;;;;;;;6.63;3.72;;;16.30;63.10;;;;;;4992587;28;20024;-73
2023/02/18 01:27:46;;;;;;;5.90;3.78;;;16.40;62.40;;;;;;4992436;28;20030;-73
2023/02/18 01:30:14;;;;;;;5.88;3.30;;;16.30;62.40;;;;;;4992682;28;20023;-73
2023/02/18 01:32:40;;;;;;;6.07;3.47;;;16.40;62.50;;;;;;4992434;28;20030;-73
2023/02/18 01:35:07;;;;;;;6.10;3.33;;;16.30;62.40;;;;;;4992521;28;20158;-73
2023/02/18 01:37:33;;;;;;;6.53;4.05;;;16.40;62.60;;;;;;4992420;28;20026;-73
2023/02/18 01:39:58;;;;;;;6.18;3.85;;;16.30;62.40;;;;;;4992435;28;20022;-73
2023/02/18 01:42:27;;;;;;;6.75;3.95;;;16.30;63.20;;;;;;4992351;28;20052;-73
2023/02/18 01:44:53;;;;;;;6.32;3.67;;;16.40;62.60;;;;;;4992291;28;20022;-73
2023/02/18 01:47:19;;;;;;;5.90;3.58;;;16.30;62.50;;;;;;4992431;28;20393;-73
2023/02/18 01:49:51;;;;;;;7.93;4.03;;;16.30;62.50;;;;;;4992330;28;20030;-73
2023/02/18 01:52:23;;;;;;;6.63;3.35;;;16.30;62.50;;;;;;4992305;28;20065;-73
2023/02/18 01:54:52;;;;;;;6.82;4.28;;;16.30;62.60;;;;;;4992296;28;20027;-73
2023/02/18 01:57:23;;;;;;;6.45;3.88;;;16.30;62.60;;;;;;4992281;28;20019;-72
2023/02/18 01:59:53;;;;;;;6.88;3.78;;;16.30;63.30;;;;;;4992284;28;20049;-73
2023/02/18 02:02:28;;;;;;;6.03;4.05;;;16.30;62.60;;;;;;4992434;28;20031;-73
2023/02/18 02:04:55;;;;;;;7.13;4.00;;;16.30;62.60;;;;;;4991969;28;20548;-72
2023/02/18 02:07:23;;;;;;;6.22;3.78;;;16.40;62.70;;;;;;4992185;28;20023;-73
2023/02/18 02:09:52;;;;;;;5.85;3.35;;;16.30;63.30;;;;;;4993434;28;20077;-73
2023/02/18 02:12:26;;;;;;;6.35;3.58;;;16.30;62.60;;;;;;4995749;28;20019;-73
2023/02/18 02:15:00;;;;;;;5.97;3.47;;;16.30;62.60;;;;;;4995672;28;20050;-73
2023/02/18 02:17:26;;;;;;;7.50;3.92;;;16.30;62.70;;;;;;4995741;28;20030;-73
2023/02/18 02:20:19;;;;;;;6.95;4.22;;;16.30;62.70;;;;;;4995943;28;20033;-73
2023/02/18 02:23:07;;;;;;;8.23;4.00;;;16.30;62.60;;;;;;4995840;28;20046;-73
2023/02/18 02:25:41;;;;;;;7.15;4.03;;;16.30;62.80;;;;;;4995863;28;20465;-73
2023/02/18 02:28:16;;;;;;;6.63;3.40;;;16.30;62.80;;;;;;4995684;28;20110;-73
2023/02/18 02:31:16;;;;;;;6.68;3.58;;;16.30;62.80;;;;;;4995420;28;20030;-73
2023/02/18 02:33:57;;;;;;;6.60;3.40;;;16.30;62.70;;;;;;4995726;28;20026;-73
2023/02/18 02:36:32;;;;;;;6.88;3.67;;;16.30;62.90;;;;;;4995739;28;20458;-73
2023/02/18 02:39:33;;;;;;;5.10;3.20;;;16.30;62.80;;;;;;4995562;28;20041;-73
2023/02/18 02:42:55;;;;;;;4.88;3.13;;;16.30;62.80;;;;;;4995361;28;20444;-73
2023/02/18 02:45:37;;;;;;;7.78;3.85;;;16.30;62.80;;;;;;4965013;28;20045;-73
2023/02/18 02:48:06;;;;;;;5.30;3.63;;;16.20;63.50;;;;;;4995000;28;20105;-73
2023/02/18 02:50:40;;;;;;;3.20;2.25;;;16.30;62.90;;;;;;4995311;28;20560;-73
2023/02/18 02:53:26;;;;;;;6.07;3.40;;;16.30;62.80;;;;;;4995306;28;20026;-73
2023/02/18 02:55:53;;;;;;;4.30;2.67;;;16.30;62.90;;;;;;4995052;28;20022;-73
2023/02/18 02:58:20;;;;;;;5.07;3.05;;;16.20;62.80;;;;;;4995179;28;20026;-73
2023/02/18 03:01:23;;;;;;;2.85;1.95;;;16.30;62.90;;;;;;4995166;28;20106;-73
2023/02/18 03:04:21;;;;;;;5.93;2.88;;;16.30;62.90;;;;;;4994869;28;20500;-73
2023/02/18 03:06:58;;;;;;;2.88;2.10;;;16.30;62.90;;;;;;4994963;28;20034;-73
2023/02/18 03:09:30;;;;;;;3.75;2.65;;;16.30;63.00;;;;;;4994949;28;20030;-73
2023/02/18 03:11:56;;;;;;;3.33;2.20;;;16.20;63.00;;;;;;4994977;28;20034;-73
2023/02/18 03:14:43;;;;;;;3.45;2.40;;;16.30;63.00;;;;;;4994632;28;20034;-73
2023/02/18 03:17:13;;;;;;;2.63;1.92;;;16.30;62.90;;;;;;4994522;28;20042;-73
2023/02/18 03:19:46;;;;;;;3.17;1.85;;;16.30;62.90;;;;;;4994838;28;20425;-73
2023/02/18 03:22:21;;;;;;;2.85;2.30;;;16.30;63.00;;;;;;4994241;28;20045;-73
2023/02/18 03:24:50;;;;;;;2.15;1.45;;;16.30;63.10;;;;;;4994588;28;20452;-73
2023/02/18 03:27:32;;;;;;;2.63;1.70;;;16.30;62.90;;;;;;4994329;28;20041;-73
2023/02/18 03:30:11;;;;;;;2.85;2.08;;;16.30;63.00;;;;;;4994356;28;20093;-73
2023/02/18 03:32:37;;;;;;;2.27;1.27;;;16.30;63.00;;;;;;4994324;28;20453;-73
2023/02/18 03:35:10;;;;;;;1.55;1.40;;;16.30;63.00;;;;;;4976688;28;20380;-73
2023/02/18 03:37:42;;;;;;;1.80;1.67;;;16.30;63.10;;;;;;4994333;28;20023;-73
2023/02/18 03:40:09;;;;;;;2.60;1.80;;;16.30;63.00;;;;;;4994127;28;20085;-73
2023/02/18 03:42:35;;;;;;;2.03;1.77;;;16.30;63.20;;;;;;4993968;28;20508;-73
2023/02/18 03:45:01;;;;;;;1.60;1.50;;;16.30;63.20;;;;;;4994091;28;20026;-73
2023/02/18 03:47:27;;;;;;;3.58;2.15;;;16.30;63.20;;;;;;4993962;28;20471;-73
2023/02/18 03:49:52;;;;;;;3.72;2.00;;;16.30;63.30;;;;;;4994005;28;20064;-73
2023/02/18 03:52:18;;;;;;;2.70;1.90;;;16.30;63.30;;;;;;4993852;28;20500;-73
2023/02/18 03:54:44;;;;;;;2.40;1.90;;;16.30;63.30;;;;;;4993881;28;20515;-73
2023/02/18 03:57:10;;;;;;;2.17;1.90;;;16.30;63.40;;;;;;4993825;28;20023;-73
2023/02/18 03:59:35;;;;;;;2.90;2.42;;;16.30;63.40;;;;;;4993745;28;20053;-73
2023/02/18 04:02:01;;;;;;;2.00;1.80;;;16.30;63.40;;;;;;4993657;28;20501;-73
2023/02/18 04:04:27;;;;;;;2.38;1.90;;;16.30;63.40;;;;;;4993425;28;20047;-73
2023/02/18 04:06:53;;;;;;;2.08;1.70;;;16.30;63.30;;;;;;4993753;28;20081;-73
2023/02/18 04:09:18;;;;;;;2.22;1.77;;;16.30;63.40;;;;;;4993531;28;20021;-73
2023/02/18 04:11:44;;;;;;;1.70;1.45;;;16.30;63.50;;;;;;4993590;28;20595;-73
2023/02/18 04:14:13;;;;;;;2.22;1.73;;;16.30;63.50;;;;;;4993483;28;20026;-73
2023/02/18 04:16:39;;;;;;;2.33;1.40;;;16.30;63.40;;;;;;4993446;28;20030;-73
2023/02/18 04:19:04;;;;;;;2.15;1.58;;;16.30;64.20;;;;;;4993394;28;20080;-73
2023/02/18 04:21:30;;;;;;;3.00;1.45;;;16.30;63.30;;;;;;4993287;28;20027;-73
2023/02/18 04:23:55;;;;;;;2.30;1.83;;;16.30;63.50;;;;;;4993333;28;20023;-73
2023/02/18 04:26:21;;;;;;;2.83;1.60;;;16.30;63.50;;;;;;4993252;28;20026;-73
2023/02/18 04:28:47;;;;;;;1.55;1.33;;;16.30;63.50;;;;;;4993373;28;20023;-73
2023/02/18 04:31:14;;;;;;;1.55;1.23;;;16.30;63.50;;;;;;4993293;28;20022;-73
2023/02/18 04:33:39;;;;;;;1.70;1.25;;;16.30;63.50;;;;;;4992801;28;20031;-73
2023/02/18 04:36:05;;;;;;;1.17;1.08;;;16.30;63.60;;;;;;4993209;28;20023;-73
2023/02/18 04:38:31;;;;;;;1.75;1.30;;;16.20;63.40;;;;;;4993140;28;20039;-73
2023/02/18 04:40:57;;;;;;;1.42;1.33;;;16.30;63.50;;;;;;4993103;28;20153;-73
2023/02/18 04:43:22;;;;;;;1.73;1.17;;;16.20;63.40;;;;;;4992924;28;20061;-73
2023/02/18 04:45:48;;;;;;;1.60;1.05;;;16.30;63.50;;;;;;4993093;28;20029;-73
2023/02/18 04:48:14;;;;;;;1.20;1.00;;;16.20;63.50;;;;;;4993026;28;20382;-73
2023/02/18 04:50:39;;;;;;;1.50;1.00;;;16.20;63.40;;;;;;4993160;28;20414;-73
2023/02/18 04:53:05;;;;;;;2.05;0.90;;;16.20;63.40;;;;;;4992898;28;20065;-73
2023/02/18 04:55:31;;;;;;;2.30;1.02;;;16.20;63.50;;;;;;4992855;28;20059;-73
2023/02/18 04:57:56;;;;;;;1.15;0.88;;;16.20;63.50;;;;;;4993095;28;20121;-73
2023/02/18 05:00:22;;;;;;;1.00;0.80;;;16.20;63.40;;;;;;4993072;28;20026;-73
2023/02/18 05:02:47;;;;;;;1.80;1.10;;;16.20;63.40;;;;;;4992633;28;20046;-72
2023/02/18 05:05:14;;;;;;;1.75;1.02;;;16.20;63.40;;;;;;4992610;28;20050;-73
2023/02/18 05:07:41;;;;;;;1.02;0.90;;;16.20;63.40;;;;;;4992628;28;20063;-73
2023/02/18 05:10:08;;;;;;;1.00;0.90;;;16.20;63.40;;;;;;4992972;28;20447;-73
2023/02/18 05:12:33;;;;;;;1.63;0.93;;;16.20;63.40;;;;;;4992923;28;20109;-73
2023/02/18 05:14:59;;;;;;;1.10;1.00;;;16.20;63.50;;;;;;4992709;28;20109;-73
2023/02/18 05:17:24;;;;;;;2.38;1.35;;;16.20;63.40;;;;;;4992673;28;20027;-73
2023/02/18 05:19:50;;;;;;;1.35;1.00;;;16.20;63.40;;;;;;4992754;28;20465;-73
2023/02/18 05:22:16;;;;;;;1.83;1.20;;;16.20;63.30;;;;;;4992598;28;20043;-73
2023/02/18 05:24:41;;;;;;;2.60;1.30;;;16.20;63.40;;;;;;4992626;28;20026;-73
2023/02/18 05:27:07;;;;;;;2.03;1.65;;;16.20;63.40;;;;;;4992542;28;20080;-73
2023/02/18 05:29:32;;;;;;;2.22;1.20;;;16.20;63.30;;;;;;4992496;28;20023;-73
2023/02/18 05:31:58;;;;;;;2.10;1.45;;;16.20;63.40;;;;;;4992598;28;20027;-73
2023/02/18 05:34:24;;;;;;;2.03;1.50;;;16.20;63.40;;;;;;4992509;28;20034;-73
2023/02/18 05:36:49;;;;;;;1.98;1.27;;;16.10;63.40;;;;;;4992411;28;20488;-73
2023/02/18 05:39:15;;;;;;;1.63;1.13;;;16.10;63.40;;;;;;4992628;28;20107;-73
2023/02/18 05:41:40;;;;;;;3.25;1.70;;;16.10;63.40;;;;;;4992447;28;20027;-73
2023/02/18 05:46:50;;;;;;;2.22;1.58;;;16.10;63.40;;;;;;4996491;28;20046;-73
2023/02/18 05:49:16;;;;;;;3.13;1.55;;;16.10;63.40;;;;;;4996242;28;20026;-73
2023/02/18 05:51:42;;;;;;;3.05;1.40;;;16.10;63.50;;;;;;4996121;28;20045;-73
2023/02/18 05:54:07;;;;;;;2.63;1.48;;;16.10;63.50;;;;;;4996111;28;20026;-72
2023/02/18 05:56:33;;;;;;;2.78;1.55;;;16.10;63.50;;;;;;4994861;28;20093;-72
2023/02/18 05:58:58;;;;;;;2.97;1.40;;;16.10;63.40;;;;;;4996072;28;20031;-72
2023/02/18 06:01:24;;;;;;;3.00;1.50;;;15.90;71.90;;;;;;4995917;28;20436;-72
2023/02/18 06:03:50;;;;;;;2.28;1.50;;;16.10;63.60;;;;;;4996193;28;20026;-73
2023/02/18 06:06:15;;;;;;;3.47;1.92;;;16.10;63.50;;;;;;4995781;28;20120;-73
2023/02/18 06:08:41;;;;;;;2.83;1.30;;;16.10;63.70;;;;;;4995850;28;20062;-72
2023/02/18 06:11:07;;;;;;;4.70;1.88;;;16.10;63.50;;;;;;4997118;28;20113;-72
2023/02/18 06:13:32;;;;;;;2.80;1.33;;;16.10;63.50;;;;;;4995861;28;20033;-73
2023/02/18 06:15:58;;;;;;;4.90;1.55;;;16.10;63.60;;;;;;4995776;28;20030;-72
2023/02/18 06:18:24;;;;;;;1.45;1.10;;;16.10;63.70;;;;;;4995905;28;20030;-72
2023/02/18 06:20:49;;;;;;;3.58;1.50;;;16.10;63.60;;;;;;4995571;28;20019;-74
2023/02/18 06:23:15;;;;;;;3.28;1.42;;;16.10;63.70;;;;;;4995592;28;20064;-72
2023/02/18 06:25:41;;;;;;;4.03;1.45;;;16.10;63.60;;;;;;4995532;28;20038;-73
2023/02/18 06:28:07;;;;;;;2.70;1.38;;;16.10;63.70;;;;;;4995520;28;20026;-72
2023/02/18 06:30:33;;;;;;;4.68;1.55;;;16.10;63.70;;;;;;4995532;28;20401;-73
2023/02/18 06:32:58;;;;;;;3.63;1.60;;;16.10;63.70;;;;;;4995393;28;20084;-73
2023/02/18 06:35:24;;;;;;;4.55;1.80;;;16.10;63.90;;;;;;4995464;28;20034;-74
2023/02/18 06:37:50;;;;;;;3.28;1.73;;;16.00;64.00;;;;;;4995341;28;20037;-73
2023/02/18 06:40:17;;;;;;;4.97;2.03;;;16.10;64.10;;;;;;4995265;28;20064;-72
2023/02/18 06:42:43;;;;;;;7.47;2.72;;;16.10;64.10;;;;;;4995151;28;20041;-73
2023/02/18 06:45:08;;;;;;;9.95;3.13;;;16.00;64.10;;;;;;4995140;28;20022;-72
2023/02/18 06:47:34;;;;;;;9.77;5.45;;;16.10;64.40;;;;;;4995237;28;20022;-73
2023/02/18 06:50:00;;;;;;;9.35;6.35;;;16.10;64.50;;;;;;4995110;28;20034;-72
2023/02/18 06:52:25;;;;;;;13.70;8.55;;;16.10;64.40;;;;;;4995110;28;20026;-73
2023/02/18 06:54:51;;;;;;;15.13;12.35;;;16.10;64.40;;;;;;4994519;28;20157;-75
2023/02/18 06:57:16;;;;;;;19.00;16.95;;;16.10;64.60;;;;;;4994866;28;20481;-73
2023/02/18 06:59:42;;;;;;;23.98;19.10;;;16.10;64.70;;;;;;4994929;28;20026;-73
2023/02/18 07:02:11;;;;;;;28.58;23.33;;;16.10;64.40;;;;;;4994779;28;20038;-72
2023/02/18 07:04:37;;;;;;;32.63;26.92;;;16.10;64.80;;;;;;4994699;28;20122;-73
2023/02/18 07:07:04;;;;;;;33.13;29.40;;;16.10;64.60;;;;;;4994892;28;20097;-73
2023/02/18 07:09:29;;;;;;;39.13;35.13;;;16.10;64.80;;;;;;4994756;28;20034;-73
2023/02/18 07:11:55;;;;;;;38.88;34.78;;;16.10;65.60;;;;;;4994843;28;20022;-73
2023/02/18 07:14:23;;;;;;;42.10;36.33;;;16.10;64.70;;;;;;4994664;28;20448;-73
2023/02/18 07:16:48;;;;;;;41.67;37.13;;;16.10;64.60;;;;;;4994673;28;20031;-72
2023/02/18 07:19:14;;;;;;;43.20;38.53;;;16.10;64.50;;;;;;4994569;28;20583;-74
2023/02/18 07:21:40;;;;;;;43.72;38.33;;;16.10;64.70;;;;;;4994446;28;20130;-73
2023/02/18 07:24:06;;;;;;;43.67;39.15;;;16.10;64.50;;;;;;4994448;28;20057;-72
2023/02/18 07:26:31;;;;;;;43.95;38.70;;;16.10;64.70;;;;;;4994507;28;20073;-73
2023/02/18 07:28:57;;;;;;;43.50;35.65;;;16.10;64.50;;;;;;4994342;28;20093;-72
2023/02/18 07:31:22;;;;;;;40.97;35.60;;;16.10;64.60;;;;;;4994416;28;20090;-73
2023/02/18 07:33:48;;;;;;;37.85;33.00;;;16.10;64.30;;;;;;4994364;28;20035;-73
2023/02/18 07:36:14;;;;;;;39.50;32.97;;;16.30;64.40;;;;;;4994214;28;20037;-73
2023/02/18 07:38:39;;;;;;;36.17;29.10;;;16.10;64.30;;;;;;4994128;28;20026;-73
2023/02/18 07:41:05;;;;;;;31.63;27.30;;;16.10;64.40;;;;;;4994169;28;20026;-73
2023/02/18 07:43:30;;;;;;;31.02;25.15;;;16.10;64.30;;;;;;4994086;28;20489;-75
2023/02/18 07:45:56;;;;;;;29.58;23.45;;;16.10;64.30;;;;;;4994055;28;20019;-75
2023/02/18 07:48:21;;;;;;;28.02;22.25;;;16.20;64.20;;;;;;4976701;28;20026;-75
2023/02/18 07:50:47;;;;;;;24.80;19.15;;;16.10;64.10;;;;;;4994148;28;20014;-78
2023/02/18 07:53:14;;;;;;;24.55;18.85;;;16.20;64.00;;;;;;4993873;28;20037;-74
2023/02/18 07:55:49;;;;;;;22.08;16.77;;;16.10;64.00;;;;;;4993907;28;20389;-74
2023/02/18 07:58:22;;;;;;;21.77;16.17;;;16.20;63.80;;;;;;4993830;28;20545;-77
2023/02/18 08:00:49;;;;;;;20.27;14.20;;;16.20;63.80;;;;;;4993795;28;20029;-74
2023/02/18 08:03:19;;;;;;;18.83;12.40;;;16.20;63.60;;;;;;4993541;28;20072;-73
2023/02/18 08:05:46;;;;;;;23.85;11.80;;;16.20;63.70;;;;;;4993572;28;20125;-75
2023/02/18 08:08:19;;;;;;;17.60;10.85;;;16.10;63.60;;;;;;4992851;28;20057;-74
2023/02/18 08:10:45;;;;;;;16.30;10.73;;;16.20;63.60;;;;;;4993655;28;20026;-74
2023/02/18 08:13:10;;;;;;;14.63;9.00;;;16.20;63.50;;;;;;4993598;28;20030;-75
2023/02/18 08:15:36;;;;;;;18.75;9.48;;;16.20;63.50;;;;;;4993610;28;20029;-74
2023/02/18 08:18:02;;;;;;;20.33;8.90;;;16.20;63.40;;;;;;4993586;28;20041;-74
2023/02/18 08:20:28;;;;;;;15.10;8.02;;;16.20;63.40;;;;;;4993342;28;20030;-73
2023/02/18 08:22:54;;;;;;;12.88;7.18;;;16.20;63.30;;;;;;4993376;28;20097;-73
2023/02/18 08:25:19;;;;;;;13.80;6.90;;;16.20;63.30;;;;;;4975834;28;20113;-74
2023/02/18 08:27:46;;;;;;;13.57;6.80;;;16.10;63.20;;;;;;4993618;28;20033;-74
2023/02/18 08:30:12;;;;;;;9.50;5.38;;;16.10;63.10;;;;;;4993346;28;20017;-74
2023/02/18 08:32:37;;;;;;;12.77;5.55;;;16.10;63.10;;;;;;4993202;28;20030;-72
2023/02/18 08:35:04;;;;;;;10.95;4.60;;;16.10;63.20;;;;;;4993257;28;20018;-73
2023/02/18 08:37:30;;;;;;;11.05;4.80;;;16.10;63.10;;;;;;4993394;28;20106;-74
2023/02/18 08:39:56;;;;;;;8.82;4.22;;;16.10;63.30;;;;;;4993175;28;20043;-73
2023/02/18 08:42:21;;;;;;;8.98;4.47;;;16.00;63.30;;;;;;4992994;28;20038;-73
2023/02/18 08:44:47;;;;;;;12.82;3.53;;;16.00;63.40;;;;;;4993207;28;20027;-73
2023/02/18 08:47:12;;;;;;;10.68;3.85;;;16.10;63.40;;;;;;4993107;28;20561;-74
2023/02/18 08:49:38;;;;;;;13.63;3.50;;;16.10;63.60;;;;;;4992988;28;20092;-74
2023/02/18 08:52:04;;;;;;;11.38;3.47;;;16.10;63.50;;;;;;4993070;28;20504;-73
2023/02/18 08:54:30;;;;;;;10.73;3.50;;;16.10;63.40;;;;;;4992826;28;20061;-73
2023/02/18 08:56:56;;;;;;;11.70;3.00;;;16.10;63.40;;;;;;4992954;28;20032;-73
2023/02/18 08:59:23;;;;;;;8.85;2.92;;;16.10;63.40;;;;;;4992859;28;20026;-73
2023/02/18 09:01:49;;;;;;;9.70;3.13;;;16.10;63.40;;;;;;4992745;28;20038;-73
2023/02/18 09:04:15;;;;;;;9.13;2.10;;;16.10;63.40;;;;;;4992681;28;20601;-73
2023/02/18 09:06:41;;;;;;;9.75;2.70;;;16.10;63.30;;;;;;4992634;28;20026;-73
2023/02/18 09:09:07;;;;;;;12.93;2.65;;;16.10;63.20;;;;;;4992748;28;20022;-73
2023/02/18 09:11:33;;;;;;;8.35;2.35;;;16.10;63.20;;;;;;4992923;28;20037;-73
2023/02/18 09:13:58;;;;;;;11.20;2.60;;;16.10;63.20;;;;;;4992619;28;20080;-73
2023/02/18 09:16:25;;;;;;;12.38;3.33;;;16.10;63.00;;;;;;4992706;28;20022;-73
2023/02/18 09:18:51;;;;;;;7.57;2.42;;;16.20;63.00;;;;;;4994274;28;20501;-73
2023/02/18 09:21:19;;;;;;;9.52;2.10;;;16.20;63.00;;;;;;4996823;28;20029;-74
2023/02/18 09:23:45;;;;;;;8.55;2.28;;;16.20;63.00;;;;;;4996944;28;20172;-75
2023/02/18 09:26:14;;;;;;;8.95;2.63;;;16.20;63.00;;;;;;4996662;28;20474;-74
2023/02/18 09:28:40;;;;;;;9.57;2.58;;;16.20;62.90;;;;;;4996501;28;20030;-74
2023/02/18 09:31:11;;;;;;;8.55;2.08;;;16.20;62.80;;;;;;4997087;28;20397;-76
2023/02/18 09:33:40;;;;;;;11.32;2.13;;;16.20;62.90;;;;;;5000071;28;20022;-74
2023/02/18 09:36:07;;;;;;;6.78;2.10;;;16.20;62.80;;;;;;4996442;28;20030;-75
2023/02/18 09:38:33;;;;;;;10.77;2.08;;;16.20;62.70;;;;;;4996764;28;20358;-74
2023/02/18 09:41:02;;;;;;;6.70;2.22;;;16.20;62.90;;;;;;4996676;28;20042;-71
2023/02/18 09:43:42;;;;;;;8.77;2.72;;;16.20;62.80;;;;;;4996267;28;20042;-71
2023/02/18 09:46:45;;;;;;;7.82;2.55;;;16.10;62.80;;;;;;4996294;28;20038;-72
2023/02/18 09:49:25;;;;;;;10.32;2.58;;;16.20;62.80;;;;;;4983195;28;20109;-72
2023/02/18 09:51:52;;;;;;;11.52;2.35;;;16.20;62.90;;;;;;4996165;28;20133;-72
2023/02/18 09:54:19;;;;;;;11.30;2.30;;;16.20;62.80;;;;;;4996162;28;20026;-72
2023/02/18 09:56:46;;;;;;;10.18;2.47;;;16.20;62.80;;;;;;4996178;28;20038;-72
2023/02/18 09:59:23;;;;;;;4.82;1.50;;;16.20;62.80;;;;;;4996072;28;20027;-72
2023/02/18 10:01:51;;;;;;;6.75;2.28;;;16.20;62.80;;;;;;4996143;28;20413;-72
2023/02/18 10:04:39;;;;;;;10.60;2.55;;;16.20;62.80;;;;;;4995824;28;20112;-74
2023/02/18 10:07:05;;;;;;;10.32;2.42;;;16.20;62.70;;;;;;4995975;28;20058;-75
2023/02/18 10:09:34;;;;;;;10.13;2.15;;;16.10;62.70;;;;;;4995968;28;20502;-73
2023/02/18 10:12:21;;;;;;;8.10;1.88;;;16.20;62.80;;;;;;4995854;28;20026;-73
2023/02/18 10:14:53;;;;;;;7.65;2.20;;;16.20;62.70;;;;;;4995763;28;20022;-74
2023/02/18 10:17:22;;;;;;;6.90;1.55;;;16.20;62.70;;;;;;4995851;28;20030;-73
2023/02/18 10:19:50;;;;;;;8.05;1.98;;;16.10;62.80;;;;;;4995585;28;20088;-74
2023/02/18 10:22:17;;;;;;;7.35;1.98;;;16.20;62.80;;;;;;4995529;28;20133;-73
2023/02/18 10:25:04;;;;;;;6.50;2.15;;;16.20;62.80;;;;;;4995665;28;20022;-73
2023/02/18 10:27:33;;;;;;;6.72;1.90;;;16.10;62.80;;;;;;4995596;28;20026;-73
2023/02/18 10:30:21;;;;;;;9.75;2.55;;;16.10;62.80;;;;;;4994337;28;20022;-72
2023/02/18 10:32:50;;;;;;;7.30;1.58;;;16.10;62.60;;;;;;4995400;28;20069;-74
2023/02/18 10:35:32;;;;;;;10.05;2.03;;;16.10;62.70;;;;;;4995227;28;20030;-72
2023/02/18 10:38:36;;;;;;;10.82;1.88;;;16.20;62.80;;;;;;4995235;28;20026;-72
2023/02/18 10:41:14;;;;;;;9.90;1.83;;;16.20;62.80;;;;;;4995199;28;20501;-72
2023/02/18 10:44:18;;;;;;;6.22;2.10;;;16.10;62.80;;;;;;4995481;28;20055;-73
2023/02/18 10:47:05;;;;;;;11.10;2.25;;;16.20;62.90;;;;;;4916017;29;20040;-72
2023/02/18 10:49:56;;;;;;;6.82;1.80;;;16.20;62.90;;;;;;4992138;28;20113;-73
2023/02/18 10:52:23;;;;;;;8.38;1.95;;;16.20;62.90;;;;;;4995148;28;20031;-73
2023/02/18 10:55:05;;;;;;;7.82;2.10;;;16.20;62.90;;;;;;4994978;28;20053;-72
2023/02/18 10:57:31;;;;;;;7.65;2.05;;;16.20;62.90;;;;;;4977680;28;20045;-72
2023/02/18 11:00:11;;;;;;;6.95;2.08;;;16.10;62.90;;;;;;4994837;28;20026;-73
2023/02/18 11:02:38;;;;;;;;;;;16.20;62.90;;;;;;4995198;28;20035;-73
2023/02/18 11:05:22;;;;;;;5.75;1.70;;;16.20;62.90;;;;;;4994529;28;19963;-73
2023/02/18 11:07:52;;;;;;;8.85;1.80;;;16.20;63.00;;;;;;4994741;28;20042;-73
2023/02/18 11:10:24;;;;;;;8.90;2.10;;;16.10;63.00;;;;;;4994559;28;20038;-73
2023/02/18 11:13:05;;;;;;;8.38;1.83;;;16.10;63.60;;;;;;4994783;28;20101;-73
2023/02/18 11:15:31;;;;;;;6.00;1.50;;;16.20;63.00;;;;;;4994631;28;20539;-76
2023/02/18 11:18:25;;;;;;;8.35;2.03;;;16.20;62.90;;;;;;4994609;28;20134;-73
2023/02/18 11:21:01;;;;;;;10.20;2.00;;;16.20;63.00;;;;;;4994667;28;20140;-73
2023/02/18 11:23:27;;;;;;;9.30;1.95;;;16.20;63.00;;;;;;4994524;28;20038;-74
2023/02/18 11:26:05;;;;;;;7.72;2.00;;;16.20;62.90;;;;;;4994426;28;20030;-74
2023/02/18 11:28:34;;;;;;;8.43;1.92;;;16.20;63.00;;;;;;4994631;28;20050;-71
2023/02/18 11:31:02;;;;;;;5.97;1.90;;;16.10;62.90;;;;;;4994456;28;20030;-73
2023/02/18 11:33:38;;;;;;;7.90;1.88;;;16.20;62.90;;;;;;4994370;28;20052;-73
2023/02/18 11:36:14;;;;;;;5.05;1.52;;;16.20;62.90;;;;;;4994237;28;20030;-74
2023/02/18 11:39:16;;;;;;;3.75;1.40;;;16.20;63.00;;;;;;4994401;28;20036;-73
2023/02/18 11:41:46;;;;;;;4.85;1.77;;;16.20;63.00;;;;;;4994045;28;20030;-74
2023/02/18 11:44:35;;;;;;;9.15;1.83;;;16.20;63.00;;;;;;4994166;28;20121;-73
2023/02/18 11:47:13;;;;;;;7.22;1.98;;;16.10;62.90;;;;;;4994061;28;20588;-72
2023/02/18 11:49:40;;;;;;;7.68;1.75;;;16.20;63.00;;;;;;4994148;28;20088;-74
2023/02/18 11:52:22;;;;;;;5.90;1.83;;;16.20;62.90;;;;;;4994016;28;20028;-72
2023/02/18 11:55:03;;;;;;;8.90;2.35;;;16.20;63.00;;;;;;4994071;28;20066;-73
2023/02/18 11:57:30;;;;;;;8.40;2.00;;;16.20;63.00;;;;;;4993852;28;20054;-72
2023/02/18 11:59:58;;;;;;;7.03;1.92;;;16.20;63.10;;;;;;4993798;28;20046;-72
2023/02/18 12:02:34;;;;;;;8.43;2.13;;;16.20;63.00;;;;;;4993942;28;20041;-72
2023/02/18 12:04:59;;;;;;;8.98;2.13;;;16.20;63.00;;;;;;4993701;28;20405;-72
2023/02/18 12:08:07;;;;;;;8.38;1.58;;;16.20;63.00;;;;;;4993846;28;20030;-73
2023/02/18 12:10:39;;;;;;;8.35;2.33;;;16.20;63.00;;;;;;4963632;28;20066;-73
2023/02/18 12:13:16;;;;;;;8.65;2.10;;;16.10;63.10;;;;;;4993864;28;20084;-74
2023/02/18 12:15:48;;;;;;;5.00;1.70;;;16.20;63.10;;;;;;4993697;28;20030;-72
2023/02/18 12:18:38;;;;;;;5.70;2.13;;;16.20;63.10;;;;;;4993489;28;20041;-72
2023/02/18 12:21:17;;;;;;;8.63;1.92;;;16.20;63.10;;;;;;4993697;28;20041;-72
2023/02/18 12:23:48;;;;;;;9.32;1.95;;;16.10;63.10;;;;;;4993736;28;20073;-73
2023/02/18 12:26:31;;;;;;;7.63;2.05;;;16.20;63.20;;;;;;4993769;28;20030;-73
2023/02/18 12:29:45;;;;;;;10.55;2.17;;;16.10;63.10;;;;;;4993367;28;20037;-73
2023/02/18 12:32:23;;;;;;;6.00;1.40;;;16.20;63.10;;;;;;4986274;28;20042;-73
2023/02/18 12:35:31;;;;;;;9.02;2.40;;;16.20;63.20;;;;;;4993585;28;20037;-73
2023/02/18 12:38:35;;;;;;;7.53;1.80;;;16.20;63.20;;;;;;4950160;28;20165;-73
2023/02/18 12:41:42;;;;;;;8.35;1.70;;;16.20;63.20;;;;;;4993090;28;20436;-72
2023/02/18 12:44:30;;;;;;;7.60;1.70;;;16.20;63.20;;;;;;4993485;28;20038;-72
2023/02/18 12:47:16;;;;;;;5.63;1.40;;;16.10;63.20;;;;;;4993125;28;20068;-73
2023/02/18 12:50:16;;;;;;;11.55;2.35;;;16.20;63.20;;;;;;4953469;28;20493;-73
2023/02/18 12:53:00;;;;;;;7.57;1.42;;;16.20;63.20;;;;;;4992606;28;20030;-72
2023/02/18 12:55:47;;;;;;;6.95;1.63;;;16.20;63.20;;;;;;4993132;28;20092;-72
2023/02/18 12:58:41;;;;;;;5.63;1.85;;;16.20;63.20;;;;;;4993188;28;20145;-72
2023/02/18 13:01:22;;;;;;;7.28;2.00;;;16.20;63.20;;;;;;4993224;28;20026;-72
2023/02/18 13:04:25;;;;;;;9.82;2.33;;;16.20;63.20;;;;;;4993403;28;20113;-72
2023/02/18 13:07:14;;;;;;;11.32;2.85;;;16.20;63.20;;;;;;4992772;28;20182;-72